sensor_id;sensor_type;location;lat;lon;timestamp;temperature;humidity
16074;DHT22;8141;52.664;5.074;2023-04-15T00:01:26;20.20;46.30
16074;DHT22;8141;52.664;5.074;2023-04-15T00:03:53;20.20;46.30
16074;DHT22;8141;52.664;5.074;2023-04-15T00:06:20;20.20;46.30
16074;DHT22;8141;52.664;5.074;2023-04-15T00:08:46;20.30;46.30
16074;DHT22;8141;52.664;5.074;2023-04-15T00:11:13;20.30;46.30
16074;DHT22;8141;52.664;5.074;2023-04-15T00:13:39;20.20;46.90
16074;DHT22;8141;52.664;5.074;2023-04-15T00:16:06;20.30;46.40
16074;DHT22;8141;52.664;5.074;2023-04-15T00:18:33;20.30;46.40
16074;DHT22;8141;52.664;5.074;2023-04-15T00:21:00;20.30;46.40
16074;DHT22;8141;52.664;5.074;2023-04-15T00:23:27;20.20;46.40
16074;DHT22;8141;52.664;5.074;2023-04-15T00:25:53;20.30;46.40
16074;DHT22;8141;52.664;5.074;2023-04-15T00:28:19;20.30;46.50
16074;DHT22;8141;52.664;5.074;2023-04-15T00:30:45;20.30;46.50
16074;DHT22;8141;52.664;5.074;2023-04-15T00:33:12;20.30;46.50
16074;DHT22;8141;52.664;5.074;2023-04-15T00:35:38;20.30;46.60
16074;DHT22;8141;52.664;5.074;2023-04-15T00:38:05;20.30;46.60
16074;DHT22;8141;52.664;5.074;2023-04-15T00:40:34;20.30;46.60
16074;DHT22;8141;52.664;5.074;2023-04-15T00:43:00;20.30;46.60
16074;DHT22;8141;52.664;5.074;2023-04-15T00:45:27;20.30;46.60
16074;DHT22;8141;52.664;5.074;2023-04-15T00:47:53;20.30;46.70
16074;DHT22;8141;52.664;5.074;2023-04-15T00:50:19;20.30;46.60
16074;DHT22;8141;52.664;5.074;2023-04-15T00:52:44;20.30;46.70
16074;DHT22;8141;52.664;5.074;2023-04-15T00:55:10;20.30;46.70
16074;DHT22;8141;52.664;5.074;2023-04-15T00:57:38;20.30;46.70
16074;DHT22;8141;52.664;5.074;2023-04-15T01:00:05;20.30;46.70
16074;DHT22;8141;52.664;5.074;2023-04-15T01:02:34;20.30;46.70
16074;DHT22;8141;52.664;5.074;2023-04-15T01:05:00;20.30;46.70
16074;DHT22;8141;52.664;5.074;2023-04-15T01:07:27;20.30;46.80
16074;DHT22;8141;52.664;5.074;2023-04-15T01:09:53;20.30;46.70
16074;DHT22;8141;52.664;5.074;2023-04-15T01:12:19;20.30;46.70
16074;DHT22;8141;52.664;5.074;2023-04-15T01:14:45;20.30;46.70
16074;DHT22;8141;52.664;5.074;2023-04-15T01:17:11;20.30;46.80
16074;DHT22;8141;52.664;5.074;2023-04-15T01:19:37;20.30;46.70
16074;DHT22;8141;52.664;5.074;2023-04-15T01:22:04;20.30;46.80
16074;DHT22;8141;52.664;5.074;2023-04-15T01:24:31;20.30;46.80
16074;DHT22;8141;52.664;5.074;2023-04-15T01:26:58;20.40;46.90
16074;DHT22;8141;52.664;5.074;2023-04-15T01:29:24;20.30;46.90
16074;DHT22;8141;52.664;5.074;2023-04-15T01:31:53;20.30;46.90
16074;DHT22;8141;52.664;5.074;2023-04-15T01:34:20;20.30;46.90
16074;DHT22;8141;52.664;5.074;2023-04-15T01:36:47;20.30;46.90
16074;DHT22;8141;52.664;5.074;2023-04-15T01:39:13;20.40;47.00
16074;DHT22;8141;52.664;5.074;2023-04-15T01:41:39;20.30;46.90
16074;DHT22;8141;52.664;5.074;2023-04-15T01:44:07;20.30;46.90
16074;DHT22;8141;52.664;5.074;2023-04-15T01:46:33;20.30;46.90
16074;DHT22;8141;52.664;5.074;2023-04-15T01:48:59;20.30;46.90
16074;DHT22;8141;52.664;5.074;2023-04-15T01:51:25;20.30;46.90
16074;DHT22;8141;52.664;5.074;2023-04-15T01:53:51;20.40;47.00
16074;DHT22;8141;52.664;5.074;2023-04-15T01:56:17;20.30;47.00
16074;DHT22;8141;52.664;5.074;2023-04-15T01:58:43;20.40;46.90
16074;DHT22;8141;52.664;5.074;2023-04-15T02:01:09;20.30;46.90
16074;DHT22;8141;52.664;5.074;2023-04-15T02:03:36;20.40;47.00
16074;DHT22;8141;52.664;5.074;2023-04-15T02:06:03;20.30;47.00
16074;DHT22;8141;52.664;5.074;2023-04-15T02:08:30;20.40;47.00
16074;DHT22;8141;52.664;5.074;2023-04-15T02:10:56;20.40;47.00
16074;DHT22;8141;52.664;5.074;2023-04-15T02:13:22;20.40;47.10
16074;DHT22;8141;52.664;5.074;2023-04-15T02:15:48;20.40;47.10
16074;DHT22;8141;52.664;5.074;2023-04-15T02:18:15;20.40;47.10
16074;DHT22;8141;52.664;5.074;2023-04-15T02:20:41;20.40;47.20
16074;DHT22;8141;52.664;5.074;2023-04-15T02:23:08;20.40;47.20
16074;DHT22;8141;52.664;5.074;2023-04-15T02:25:35;20.40;47.20
16074;DHT22;8141;52.664;5.074;2023-04-15T02:28:01;20.40;47.20
16074;DHT22;8141;52.664;5.074;2023-04-15T02:30:28;20.40;47.20
16074;DHT22;8141;52.664;5.074;2023-04-15T02:32:54;20.40;47.30
16074;DHT22;8141;52.664;5.074;2023-04-15T02:35:20;20.40;47.30
16074;DHT22;8141;52.664;5.074;2023-04-15T02:37:46;20.40;47.30
16074;DHT22;8141;52.664;5.074;2023-04-15T02:40:12;20.40;47.30
16074;DHT22;8141;52.664;5.074;2023-04-15T02:42:39;20.40;47.40
16074;DHT22;8141;52.664;5.074;2023-04-15T02:45:05;20.40;47.40
16074;DHT22;8141;52.664;5.074;2023-04-15T02:47:32;20.40;47.40
16074;DHT22;8141;52.664;5.074;2023-04-15T02:49:59;20.40;48.00
16074;DHT22;8141;52.664;5.074;2023-04-15T02:52:26;20.40;47.50
16074;DHT22;8141;52.664;5.074;2023-04-15T02:54:52;20.40;47.50
16074;DHT22;8141;52.664;5.074;2023-04-15T02:57:22;20.40;47.50
16074;DHT22;8141;52.664;5.074;2023-04-15T02:59:47;20.40;47.50
16074;DHT22;8141;52.664;5.074;2023-04-15T03:02:13;20.40;48.20
16074;DHT22;8141;52.664;5.074;2023-04-15T03:04:39;20.40;47.50
16074;DHT22;8141;52.664;5.074;2023-04-15T03:07:04;20.40;47.50
16074;DHT22;8141;52.664;5.074;2023-04-15T03:09:30;20.40;47.60
16074;DHT22;8141;52.664;5.074;2023-04-15T03:11:56;20.40;47.60
16074;DHT22;8141;52.664;5.074;2023-04-15T03:14:22;20.40;47.60
16074;DHT22;8141;52.664;5.074;2023-04-15T03:16:48;20.40;47.70
16074;DHT22;8141;52.664;5.074;2023-04-15T03:19:15;20.40;47.70
16074;DHT22;8141;52.664;5.074;2023-04-15T03:21:41;20.40;47.70
16074;DHT22;8141;52.664;5.074;2023-04-15T03:24:06;20.40;47.70
16074;DHT22;8141;52.664;5.074;2023-04-15T03:26:32;20.40;47.70
16074;DHT22;8141;52.664;5.074;2023-04-15T03:28:58;20.40;47.70
16074;DHT22;8141;52.664;5.074;2023-04-15T03:31:23;20.40;47.70
16074;DHT22;8141;52.664;5.074;2023-04-15T03:33:49;20.40;47.70
16074;DHT22;8141;52.664;5.074;2023-04-15T03:36:15;20.40;47.70
16074;DHT22;8141;52.664;5.074;2023-04-15T03:38:41;20.40;47.80
16074;DHT22;8141;52.664;5.074;2023-04-15T03:41:07;20.40;47.80
16074;DHT22;8141;52.664;5.074;2023-04-15T03:43:34;20.40;47.80
16074;DHT22;8141;52.664;5.074;2023-04-15T03:46:00;20.40;47.80
16074;DHT22;8141;52.664;5.074;2023-04-15T03:48:26;20.40;47.80
16074;DHT22;8141;52.664;5.074;2023-04-15T03:50:52;20.40;47.80
16074;DHT22;8141;52.664;5.074;2023-04-15T03:53:17;20.40;47.90
16074;DHT22;8141;52.664;5.074;2023-04-15T03:55:43;20.40;47.90
16074;DHT22;8141;52.664;5.074;2023-04-15T03:58:09;20.40;47.90
16074;DHT22;8141;52.664;5.074;2023-04-15T04:00:37;20.40;47.90
16074;DHT22;8141;52.664;5.074;2023-04-15T04:03:03;20.40;47.90
16074;DHT22;8141;52.664;5.074;2023-04-15T04:05:30;20.40;47.90
16074;DHT22;8141;52.664;5.074;2023-04-15T04:07:55;20.40;47.90
16074;DHT22;8141;52.664;5.074;2023-04-15T04:10:21;20.40;47.90
16074;DHT22;8141;52.664;5.074;2023-04-15T04:12:47;20.40;47.90
16074;DHT22;8141;52.664;5.074;2023-04-15T04:15:13;20.40;47.90
16074;DHT22;8141;52.664;5.074;2023-04-15T04:17:38;20.40;48.00
16074;DHT22;8141;52.664;5.074;2023-04-15T04:20:05;20.40;48.00
16074;DHT22;8141;52.664;5.074;2023-04-15T04:22:37;20.40;47.90
16074;DHT22;8141;52.664;5.074;2023-04-15T04:25:04;20.40;48.00
16074;DHT22;8141;52.664;5.074;2023-04-15T04:27:31;20.40;48.00
16074;DHT22;8141;52.664;5.074;2023-04-15T04:29:57;20.40;48.00
16074;DHT22;8141;52.664;5.074;2023-04-15T04:32:22;20.40;48.00
16074;DHT22;8141;52.664;5.074;2023-04-15T04:34:48;20.40;48.00
16074;DHT22;8141;52.664;5.074;2023-04-15T04:37:14;20.40;48.00
16074;DHT22;8141;52.664;5.074;2023-04-15T04:39:40;20.40;48.00
16074;DHT22;8141;52.664;5.074;2023-04-15T04:42:06;20.40;48.10
16074;DHT22;8141;52.664;5.074;2023-04-15T04:44:31;20.40;48.00
16074;DHT22;8141;52.664;5.074;2023-04-15T04:46:57;20.40;48.00
16074;DHT22;8141;52.664;5.074;2023-04-15T04:49:23;20.40;48.00
16074;DHT22;8141;52.664;5.074;2023-04-15T04:51:49;20.40;48.00
16074;DHT22;8141;52.664;5.074;2023-04-15T04:54:15;20.40;48.10
16074;DHT22;8141;52.664;5.074;2023-04-15T04:56:41;20.40;48.10
16074;DHT22;8141;52.664;5.074;2023-04-15T04:59:07;20.40;48.10
16074;DHT22;8141;52.664;5.074;2023-04-15T05:01:32;20.40;48.10
16074;DHT22;8141;52.664;5.074;2023-04-15T05:03:59;20.40;48.10
16074;DHT22;8141;52.664;5.074;2023-04-15T05:06:24;20.40;48.30
16074;DHT22;8141;52.664;5.074;2023-04-15T05:08:50;20.40;48.20
16074;DHT22;8141;52.664;5.074;2023-04-15T05:11:16;20.40;48.30
16074;DHT22;8141;52.664;5.074;2023-04-15T05:13:42;20.40;48.30
16074;DHT22;8141;52.664;5.074;2023-04-15T05:16:08;20.40;48.30
16074;DHT22;8141;52.664;5.074;2023-04-15T05:18:33;20.40;48.30
16074;DHT22;8141;52.664;5.074;2023-04-15T05:20:59;20.40;48.30
16074;DHT22;8141;52.664;5.074;2023-04-15T05:23:25;20.40;48.80
16074;DHT22;8141;52.664;5.074;2023-04-15T05:25:51;20.40;48.30
16074;DHT22;8141;52.664;5.074;2023-04-15T05:28:17;20.40;48.30
16074;DHT22;8141;52.664;5.074;2023-04-15T05:30:43;20.40;48.30
16074;DHT22;8141;52.664;5.074;2023-04-15T05:33:08;20.40;48.30
16074;DHT22;8141;52.664;5.074;2023-04-15T05:35:34;20.40;48.30
16074;DHT22;8141;52.664;5.074;2023-04-15T05:38:00;20.40;48.30
16074;DHT22;8141;52.664;5.074;2023-04-15T05:40:25;20.40;48.30
16074;DHT22;8141;52.664;5.074;2023-04-15T05:42:51;20.40;48.40
16074;DHT22;8141;52.664;5.074;2023-04-15T05:45:17;20.40;48.40
16074;DHT22;8141;52.664;5.074;2023-04-15T05:47:43;20.40;48.50
16074;DHT22;8141;52.664;5.074;2023-04-15T05:50:09;20.40;48.40
16074;DHT22;8141;52.664;5.074;2023-04-15T05:52:35;20.40;48.50
16074;DHT22;8141;52.664;5.074;2023-04-15T05:55:01;20.40;48.50
16074;DHT22;8141;52.664;5.074;2023-04-15T05:57:27;20.40;48.50
16074;DHT22;8141;52.664;5.074;2023-04-15T05:59:52;20.40;48.60
16074;DHT22;8141;52.664;5.074;2023-04-15T06:02:18;20.40;48.50
16074;DHT22;8141;52.664;5.074;2023-04-15T06:04:44;20.40;48.60
16074;DHT22;8141;52.664;5.074;2023-04-15T06:07:10;20.40;48.70
16074;DHT22;8141;52.664;5.074;2023-04-15T06:09:36;20.40;48.60
16074;DHT22;8141;52.664;5.074;2023-04-15T06:12:01;20.40;48.60
16074;DHT22;8141;52.664;5.074;2023-04-15T06:14:27;20.40;48.70
16074;DHT22;8141;52.664;5.074;2023-04-15T06:16:53;20.40;48.70
16074;DHT22;8141;52.664;5.074;2023-04-15T06:19:19;20.40;48.70
16074;DHT22;8141;52.664;5.074;2023-04-15T06:21:45;20.40;48.70
16074;DHT22;8141;52.664;5.074;2023-04-15T06:24:11;20.40;48.70
16074;DHT22;8141;52.664;5.074;2023-04-15T06:26:37;20.50;48.70
16074;DHT22;8141;52.664;5.074;2023-04-15T06:29:03;20.40;48.70
16074;DHT22;8141;52.664;5.074;2023-04-15T06:31:29;20.40;48.70
16074;DHT22;8141;52.664;5.074;2023-04-15T06:33:55;20.40;48.70
16074;DHT22;8141;52.664;5.074;2023-04-15T06:36:20;20.50;48.80
16074;DHT22;8141;52.664;5.074;2023-04-15T06:38:46;20.40;48.70
16074;DHT22;8141;52.664;5.074;2023-04-15T06:41:12;20.50;48.80
16074;DHT22;8141;52.664;5.074;2023-04-15T06:43:38;20.40;48.80
16074;DHT22;8141;52.664;5.074;2023-04-15T06:46:04;20.40;48.80
16074;DHT22;8141;52.664;5.074;2023-04-15T06:48:30;20.40;48.80
16074;DHT22;8141;52.664;5.074;2023-04-15T06:50:56;20.50;48.80
16074;DHT22;8141;52.664;5.074;2023-04-15T06:53:24;20.40;48.80
16074;DHT22;8141;52.664;5.074;2023-04-15T06:55:52;20.50;48.90
16074;DHT22;8141;52.664;5.074;2023-04-15T06:58:18;20.40;48.90
16074;DHT22;8141;52.664;5.074;2023-04-15T07:00:43;20.40;48.80
16074;DHT22;8141;52.664;5.074;2023-04-15T07:03:11;20.40;48.80
16074;DHT22;8141;52.664;5.074;2023-04-15T07:05:37;20.50;48.90
16074;DHT22;8141;52.664;5.074;2023-04-15T07:08:04;20.40;48.80
16074;DHT22;8141;52.664;5.074;2023-04-15T07:10:31;20.40;48.80
16074;DHT22;8141;52.664;5.074;2023-04-15T07:12:58;20.50;48.90
16074;DHT22;8141;52.664;5.074;2023-04-15T07:15:24;20.50;48.90
16074;DHT22;8141;52.664;5.074;2023-04-15T07:17:49;20.50;48.90
16074;DHT22;8141;52.664;5.074;2023-04-15T07:20:16;20.50;48.90
16074;DHT22;8141;52.664;5.074;2023-04-15T07:22:42;20.50;49.00
16074;DHT22;8141;52.664;5.074;2023-04-15T07:25:08;20.50;49.00
16074;DHT22;8141;52.664;5.074;2023-04-15T07:27:34;20.50;49.00
16074;DHT22;8141;52.664;5.074;2023-04-15T07:29:59;20.50;49.00
16074;DHT22;8141;52.664;5.074;2023-04-15T07:32:25;20.50;49.10
16074;DHT22;8141;52.664;5.074;2023-04-15T07:34:51;20.50;49.10
16074;DHT22;8141;52.664;5.074;2023-04-15T07:37:17;20.50;49.10
16074;DHT22;8141;52.664;5.074;2023-04-15T07:39:44;20.50;49.10
16074;DHT22;8141;52.664;5.074;2023-04-15T07:42:10;20.50;49.10
16074;DHT22;8141;52.664;5.074;2023-04-15T07:44:35;20.50;49.10
16074;DHT22;8141;52.664;5.074;2023-04-15T07:47:02;20.50;49.10
16074;DHT22;8141;52.664;5.074;2023-04-15T07:49:28;20.50;49.10
16074;DHT22;8141;52.664;5.074;2023-04-15T07:51:54;20.50;49.20
16074;DHT22;8141;52.664;5.074;2023-04-15T07:54:21;20.50;49.30
16074;DHT22;8141;52.664;5.074;2023-04-15T07:56:47;20.60;49.20
16074;DHT22;8141;52.664;5.074;2023-04-15T07:59:13;20.50;49.20
16074;DHT22;8141;52.664;5.074;2023-04-15T08:01:42;20.60;49.30
16074;DHT22;8141;52.664;5.074;2023-04-15T08:04:08;20.60;49.50
16074;DHT22;8141;52.664;5.074;2023-04-15T08:06:34;20.60;49.30
16074;DHT22;8141;52.664;5.074;2023-04-15T08:09:01;20.60;49.20
16074;DHT22;8141;52.664;5.074;2023-04-15T08:11:26;20.60;49.40
16074;DHT22;8141;52.664;5.074;2023-04-15T08:13:52;20.60;49.40
16074;DHT22;8141;52.664;5.074;2023-04-15T08:18:48;20.60;49.30
16074;DHT22;8141;52.664;5.074;2023-04-15T08:21:15;20.60;49.40
16074;DHT22;8141;52.664;5.074;2023-04-15T08:23:42;20.60;49.50
16074;DHT22;8141;52.664;5.074;2023-04-15T08:26:08;20.60;49.40
16074;DHT22;8141;52.664;5.074;2023-04-15T08:28:35;20.60;49.50
16074;DHT22;8141;52.664;5.074;2023-04-15T08:31:02;20.60;49.50
16074;DHT22;8141;52.664;5.074;2023-04-15T08:33:28;20.60;49.50
16074;DHT22;8141;52.664;5.074;2023-04-15T08:35:53;20.60;49.50
16074;DHT22;8141;52.664;5.074;2023-04-15T08:38:19;20.60;49.50
16074;DHT22;8141;52.664;5.074;2023-04-15T08:40:45;20.70;49.90
16074;DHT22;8141;52.664;5.074;2023-04-15T08:45:51;20.70;49.90
16074;DHT22;8141;52.664;5.074;2023-04-15T08:48:17;20.80;49.50
16074;DHT22;8141;52.664;5.074;2023-04-15T08:50:45;20.70;49.40
16074;DHT22;8141;52.664;5.074;2023-04-15T08:53:11;20.70;49.30
16074;DHT22;8141;52.664;5.074;2023-04-15T08:55:44;20.80;49.20
16074;DHT22;8141;52.664;5.074;2023-04-15T08:58:12;20.70;49.10
16074;DHT22;8141;52.664;5.074;2023-04-15T09:00:39;20.70;49.00
16074;DHT22;8141;52.664;5.074;2023-04-15T09:03:07;20.80;49.00
16074;DHT22;8141;52.664;5.074;2023-04-15T09:05:34;20.80;49.00
16074;DHT22;8141;52.664;5.074;2023-04-15T09:08:01;20.80;48.80
16074;DHT22;8141;52.664;5.074;2023-04-15T09:10:27;20.80;48.80
16074;DHT22;8141;52.664;5.074;2023-04-15T09:12:54;20.80;48.80
16074;DHT22;8141;52.664;5.074;2023-04-15T09:15:20;20.80;48.70
16074;DHT22;8141;52.664;5.074;2023-04-15T09:17:47;20.80;48.60
16074;DHT22;8141;52.664;5.074;2023-04-15T09:20:14;20.80;48.50
16074;DHT22;8141;52.664;5.074;2023-04-15T09:22:44;20.80;48.60
16074;DHT22;8141;52.664;5.074;2023-04-15T09:25:31;20.80;48.50
16074;DHT22;8141;52.664;5.074;2023-04-15T09:28:00;20.80;48.40
16074;DHT22;8141;52.664;5.074;2023-04-15T09:30:27;20.80;48.50
16074;DHT22;8141;52.664;5.074;2023-04-15T09:33:00;20.90;48.40
16074;DHT22;8141;52.664;5.074;2023-04-15T09:35:27;20.90;48.50
16074;DHT22;8141;52.664;5.074;2023-04-15T09:38:05;20.90;48.40
16074;DHT22;8141;52.664;5.074;2023-04-15T09:40:36;20.90;48.30
16074;DHT22;8141;52.664;5.074;2023-04-15T09:43:04;20.90;48.30
16074;DHT22;8141;52.664;5.074;2023-04-15T09:45:31;20.90;48.20
16074;DHT22;8141;52.664;5.074;2023-04-15T09:47:59;20.90;48.10
16074;DHT22;8141;52.664;5.074;2023-04-15T09:50:43;20.80;48.00
16074;DHT22;8141;52.664;5.074;2023-04-15T09:53:10;20.90;47.90
16074;DHT22;8141;52.664;5.074;2023-04-15T09:55:44;20.90;47.70
16074;DHT22;8141;52.664;5.074;2023-04-15T09:58:33;20.90;47.80
16074;DHT22;8141;52.664;5.074;2023-04-15T10:01:02;20.90;47.80
16074;DHT22;8141;52.664;5.074;2023-04-15T10:03:31;20.90;47.60
16074;DHT22;8141;52.664;5.074;2023-04-15T10:06:00;20.90;47.70
16074;DHT22;8141;52.664;5.074;2023-04-15T10:08:32;20.90;47.70
16074;DHT22;8141;52.664;5.074;2023-04-15T10:11:01;21.00;47.60
16074;DHT22;8141;52.664;5.074;2023-04-15T10:13:30;20.90;47.40
16074;DHT22;8141;52.664;5.074;2023-04-15T10:16:11;21.00;47.40
16074;DHT22;8141;52.664;5.074;2023-04-15T10:18:43;20.90;47.40
16074;DHT22;8141;52.664;5.074;2023-04-15T10:21:10;21.00;47.30
16074;DHT22;8141;52.664;5.074;2023-04-15T10:23:38;21.00;47.20
16074;DHT22;8141;52.664;5.074;2023-04-15T10:26:05;20.90;47.10
16074;DHT22;8141;52.664;5.074;2023-04-15T10:28:31;21.00;47.30
16074;DHT22;8141;52.664;5.074;2023-04-15T10:30:57;21.00;47.10
16074;DHT22;8141;52.664;5.074;2023-04-15T10:33:24;21.00;47.20
16074;DHT22;8141;52.664;5.074;2023-04-15T10:35:52;21.00;47.20
16074;DHT22;8141;52.664;5.074;2023-04-15T10:41:34;21.00;47.20
16074;DHT22;8141;52.664;5.074;2023-04-15T10:44:02;21.00;46.90
16074;DHT22;8141;52.664;5.074;2023-04-15T10:46:38;21.00;47.00
16074;DHT22;8141;52.664;5.074;2023-04-15T10:49:14;21.00;47.00
16074;DHT22;8141;52.664;5.074;2023-04-15T10:51:45;21.00;47.80
16074;DHT22;8141;52.664;5.074;2023-04-15T10:54:30;21.00;48.20
16074;DHT22;8141;52.664;5.074;2023-04-15T10:59:35;21.00;48.00
16074;DHT22;8141;52.664;5.074;2023-04-15T11:02:04;21.00;47.90
16074;DHT22;8141;52.664;5.074;2023-04-15T11:04:51;21.10;48.00
16074;DHT22;8141;52.664;5.074;2023-04-15T11:07:46;21.10;47.90
16074;DHT22;8141;52.664;5.074;2023-04-15T11:12:39;21.10;47.80
16074;DHT22;8141;52.664;5.074;2023-04-15T11:17:55;21.10;47.80
16074;DHT22;8141;52.664;5.074;2023-04-15T11:20:22;21.10;47.70
16074;DHT22;8141;52.664;5.074;2023-04-15T11:22:55;21.10;47.70
16074;DHT22;8141;52.664;5.074;2023-04-15T11:25:38;21.10;47.60
16074;DHT22;8141;52.664;5.074;2023-04-15T11:28:05;21.10;47.30
16074;DHT22;8141;52.664;5.074;2023-04-15T11:30:34;21.10;47.30
16074;DHT22;8141;52.664;5.074;2023-04-15T11:33:04;21.10;47.40
16074;DHT22;8141;52.664;5.074;2023-04-15T11:35:31;21.10;47.20
16074;DHT22;8141;52.664;5.074;2023-04-15T11:37:57;21.10;47.10
16074;DHT22;8141;52.664;5.074;2023-04-15T11:40:29;21.10;47.10
16074;DHT22;8141;52.664;5.074;2023-04-15T11:43:10;21.10;47.10
16074;DHT22;8141;52.664;5.074;2023-04-15T11:45:37;21.10;46.90
16074;DHT22;8141;52.664;5.074;2023-04-15T11:48:12;21.10;46.90
16074;DHT22;8141;52.664;5.074;2023-04-15T11:50:38;21.10;46.90
16074;DHT22;8141;52.664;5.074;2023-04-15T11:53:09;21.10;46.90
16074;DHT22;8141;52.664;5.074;2023-04-15T11:55:47;21.10;46.80
16074;DHT22;8141;52.664;5.074;2023-04-15T11:58:33;21.10;46.80
16074;DHT22;8141;52.664;5.074;2023-04-15T12:01:01;21.10;46.70
16074;DHT22;8141;52.664;5.074;2023-04-15T12:06:21;21.00;46.60
16074;DHT22;8141;52.664;5.074;2023-04-15T12:16:56;21.00;46.80
16074;DHT22;8141;52.664;5.074;2023-04-15T12:22:04;21.00;46.70
16074;DHT22;8141;52.664;5.074;2023-04-15T12:24:35;21.00;46.60
16074;DHT22;8141;52.664;5.074;2023-04-15T12:27:05;21.00;46.40
16074;DHT22;8141;52.664;5.074;2023-04-15T12:29:33;21.00;46.40
16074;DHT22;8141;52.664;5.074;2023-04-15T12:34:31;21.00;46.40
16074;DHT22;8141;52.664;5.074;2023-04-15T12:36:59;21.00;46.40
16074;DHT22;8141;52.664;5.074;2023-04-15T12:39:27;21.00;46.20
16074;DHT22;8141;52.664;5.074;2023-04-15T12:41:55;21.00;46.20
16074;DHT22;8141;52.664;5.074;2023-04-15T12:44:24;21.00;46.20
16074;DHT22;8141;52.664;5.074;2023-04-15T12:46:50;21.00;46.10
16074;DHT22;8141;52.664;5.074;2023-04-15T12:49:20;21.00;46.20
16074;DHT22;8141;52.664;5.074;2023-04-15T12:51:49;21.00;46.20
16074;DHT22;8141;52.664;5.074;2023-04-15T12:54:16;21.00;46.30
16074;DHT22;8141;52.664;5.074;2023-04-15T12:56:43;21.00;46.20
16074;DHT22;8141;52.664;5.074;2023-04-15T12:59:13;21.00;46.20
16074;DHT22;8141;52.664;5.074;2023-04-15T13:01:39;20.90;46.20
16074;DHT22;8141;52.664;5.074;2023-04-15T13:04:05;20.90;46.20
16074;DHT22;8141;52.664;5.074;2023-04-15T13:06:32;20.90;46.20
16074;DHT22;8141;52.664;5.074;2023-04-15T13:08:58;20.90;46.30
16074;DHT22;8141;52.664;5.074;2023-04-15T13:11:26;20.90;46.30
16074;DHT22;8141;52.664;5.074;2023-04-15T13:13:53;20.90;46.30
16074;DHT22;8141;52.664;5.074;2023-04-15T13:16:20;20.90;46.00
16074;DHT22;8141;52.664;5.074;2023-04-15T13:18:47;20.90;46.30
16074;DHT22;8141;52.664;5.074;2023-04-15T13:21:13;20.90;45.90
16074;DHT22;8141;52.664;5.074;2023-04-15T13:23:40;20.90;46.20
16074;DHT22;8141;52.664;5.074;2023-04-15T13:26:06;20.80;45.90
16074;DHT22;8141;52.664;5.074;2023-04-15T13:28:32;20.80;45.80
16074;DHT22;8141;52.664;5.074;2023-04-15T13:30:59;20.80;45.90
16074;DHT22;8141;52.664;5.074;2023-04-15T13:33:25;20.80;46.00
16074;DHT22;8141;52.664;5.074;2023-04-15T13:35:51;20.80;45.80
16074;DHT22;8141;52.664;5.074;2023-04-15T13:38:17;20.80;45.60
16074;DHT22;8141;52.664;5.074;2023-04-15T13:40:43;20.80;45.80
16074;DHT22;8141;52.664;5.074;2023-04-15T13:43:08;20.70;45.90
16074;DHT22;8141;52.664;5.074;2023-04-15T13:45:34;20.80;46.10
16074;DHT22;8141;52.664;5.074;2023-04-15T13:48:00;20.80;46.50
16074;DHT22;8141;52.664;5.074;2023-04-15T13:50:27;20.80;45.80
16074;DHT22;8141;52.664;5.074;2023-04-15T13:52:53;20.80;45.90
16074;DHT22;8141;52.664;5.074;2023-04-15T13:55:19;20.80;45.90
16074;DHT22;8141;52.664;5.074;2023-04-15T13:57:44;20.80;45.80
16074;DHT22;8141;52.664;5.074;2023-04-15T14:00:11;20.80;45.70
16074;DHT22;8141;52.664;5.074;2023-04-15T14:02:37;20.80;45.80
16074;DHT22;8141;52.664;5.074;2023-04-15T14:05:04;20.80;45.70
16074;DHT22;8141;52.664;5.074;2023-04-15T14:07:30;20.70;45.60
16074;DHT22;8141;52.664;5.074;2023-04-15T14:09:56;20.70;45.50
16074;DHT22;8141;52.664;5.074;2023-04-15T14:12:22;20.70;45.70
16074;DHT22;8141;52.664;5.074;2023-04-15T14:14:48;20.70;45.70
16074;DHT22;8141;52.664;5.074;2023-04-15T14:17:13;20.70;45.70
16074;DHT22;8141;52.664;5.074;2023-04-15T14:19:39;20.70;45.60
16074;DHT22;8141;52.664;5.074;2023-04-15T14:22:05;20.70;45.50
16074;DHT22;8141;52.664;5.074;2023-04-15T14:24:31;20.70;45.60
16074;DHT22;8141;52.664;5.074;2023-04-15T14:26:57;20.70;45.70
16074;DHT22;8141;52.664;5.074;2023-04-15T14:29:23;20.70;45.80
16074;DHT22;8141;52.664;5.074;2023-04-15T14:31:49;20.60;45.40
16074;DHT22;8141;52.664;5.074;2023-04-15T14:34:16;20.60;45.70
16074;DHT22;8141;52.664;5.074;2023-04-15T14:36:42;20.60;45.30
16074;DHT22;8141;52.664;5.074;2023-04-15T14:39:09;20.60;45.70
16074;DHT22;8141;52.664;5.074;2023-04-15T14:41:35;20.60;45.40
16074;DHT22;8141;52.664;5.074;2023-04-15T14:44:02;20.60;45.70
16074;DHT22;8141;52.664;5.074;2023-04-15T14:46:27;20.60;45.80
16074;DHT22;8141;52.664;5.074;2023-04-15T14:48:53;20.60;45.70
16074;DHT22;8141;52.664;5.074;2023-04-15T14:51:19;20.60;45.70
16074;DHT22;8141;52.664;5.074;2023-04-15T14:53:45;20.60;45.80
16074;DHT22;8141;52.664;5.074;2023-04-15T14:56:11;20.60;45.80
16074;DHT22;8141;52.664;5.074;2023-04-15T14:58:36;20.60;46.40
16074;DHT22;8141;52.664;5.074;2023-04-15T15:01:03;20.60;45.50
16074;DHT22;8141;52.664;5.074;2023-04-15T15:03:29;20.50;45.60
16074;DHT22;8141;52.664;5.074;2023-04-15T15:05:55;20.60;45.60
16074;DHT22;8141;52.664;5.074;2023-04-15T15:08:22;20.50;45.70
16074;DHT22;8141;52.664;5.074;2023-04-15T15:10:48;20.50;45.30
16074;DHT22;8141;52.664;5.074;2023-04-15T15:13:14;20.30;45.60
16074;DHT22;8141;52.664;5.074;2023-04-15T15:15:40;20.20;46.50
16074;DHT22;8141;52.664;5.074;2023-04-15T15:18:05;20.20;46.50
16074;DHT22;8141;52.664;5.074;2023-04-15T15:20:31;20.20;46.20
16074;DHT22;8141;52.664;5.074;2023-04-15T15:22:58;20.20;46.30
16074;DHT22;8141;52.664;5.074;2023-04-15T15:25:25;20.30;46.20
16074;DHT22;8141;52.664;5.074;2023-04-15T15:27:51;20.30;46.20
16074;DHT22;8141;52.664;5.074;2023-04-15T15:30:16;20.30;45.80
16074;DHT22;8141;52.664;5.074;2023-04-15T15:32:42;20.30;46.20
16074;DHT22;8141;52.664;5.074;2023-04-15T15:35:09;20.30;46.10
16074;DHT22;8141;52.664;5.074;2023-04-15T15:37:35;20.30;45.80
16074;DHT22;8141;52.664;5.074;2023-04-15T15:40:04;20.30;46.10
16074;DHT22;8141;52.664;5.074;2023-04-15T15:42:31;20.30;46.20
16074;DHT22;8141;52.664;5.074;2023-04-15T15:44:57;20.30;46.10
16074;DHT22;8141;52.664;5.074;2023-04-15T15:47:23;20.30;46.00
16074;DHT22;8141;52.664;5.074;2023-04-15T15:49:50;20.30;46.10
16074;DHT22;8141;52.664;5.074;2023-04-15T15:52:16;20.20;46.10
16074;DHT22;8141;52.664;5.074;2023-04-15T15:54:42;20.20;46.10
16074;DHT22;8141;52.664;5.074;2023-04-15T15:57:08;20.20;45.90
16074;DHT22;8141;52.664;5.074;2023-04-15T15:59:34;20.20;45.80
16074;DHT22;8141;52.664;5.074;2023-04-15T16:02:07;20.20;45.90
16074;DHT22;8141;52.664;5.074;2023-04-15T16:04:34;20.30;45.80
16074;DHT22;8141;52.664;5.074;2023-04-15T16:06:59;20.30;45.90
16074;DHT22;8141;52.664;5.074;2023-04-15T16:09:25;20.20;45.80
16074;DHT22;8141;52.664;5.074;2023-04-15T16:11:51;20.20;45.90
16074;DHT22;8141;52.664;5.074;2023-04-15T16:14:17;20.20;46.50
16074;DHT22;8141;52.664;5.074;2023-04-15T16:16:43;20.20;45.80